createdAt,value
2023-03-30T00:01:19.955Z,16.40
2023-03-30T00:03:48.085Z,16.40
2023-03-30T00:06:24.208Z,16.40
2023-03-30T00:08:57.184Z,16.40
2023-03-30T00:11:26.197Z,16.40
2023-03-30T00:13:53.910Z,16.30
2023-03-30T00:16:21.846Z,16.40
2023-03-30T00:18:50.076Z,16.40
2023-03-30T00:21:18.208Z,16.30
2023-03-30T00:23:48.891Z,16.40
2023-03-30T00:26:17.474Z,16.30
2023-03-30T00:28:45.140Z,16.30
2023-03-30T00:31:13.294Z,16.30
2023-03-30T00:33:46.590Z,16.30
2023-03-30T00:36:16.209Z,16.30
2023-03-30T00:38:44.199Z,16.30
2023-03-30T00:41:12.292Z,16.30
2023-03-30T00:44:08.217Z,16.30
2023-03-30T00:46:36.028Z,16.30
2023-03-30T00:49:12.148Z,16.30
2023-03-30T00:51:42.631Z,16.30
2023-03-30T00:54:15.691Z,16.30
2023-03-30T00:56:43.049Z,16.30
2023-03-30T00:59:11.119Z,16.20
2023-03-30T01:01:40.340Z,16.30
2023-03-30T01:04:10.107Z,16.20
2023-03-30T01:06:40.492Z,16.20
2023-03-30T01:09:08.438Z,16.20
2023-03-30T01:11:35.619Z,16.20
2023-03-30T01:14:09.023Z,16.20
2023-03-30T01:16:41.956Z,16.20
2023-03-30T01:19:37.341Z,16.20
2023-03-30T01:22:39.368Z,16.20
2023-03-30T01:25:27.462Z,16.20
2023-03-30T01:28:42.259Z,16.20
2023-03-30T01:31:42.011Z,16.20
2023-03-30T01:34:32.811Z,16.20
2023-03-30T01:37:49.372Z,16.20
2023-03-30T01:41:14.121Z,16.20
2023-03-30T01:44:03.680Z,16.10
2023-03-30T01:46:40.242Z,16.20
2023-03-30T01:49:12.515Z,16.10
2023-03-30T01:51:49.809Z,16.10
2023-03-30T01:54:23.365Z,16.20
2023-03-30T01:57:07.325Z,16.10
2023-03-30T02:00:14.341Z,16.10
2023-03-30T02:03:08.749Z,16.10
2023-03-30T02:05:37.113Z,16.10
2023-03-30T02:08:11.545Z,16.10
2023-03-30T02:10:40.870Z,16.10
2023-03-30T02:13:09.033Z,16.10
2023-03-30T02:15:55.144Z,16.10
2023-03-30T02:18:23.501Z,16.10
2023-03-30T02:20:50.460Z,16.10
2023-03-30T02:23:22.699Z,16.10
2023-03-30T02:25:49.851Z,16.10
2023-03-30T02:28:18.439Z,16.10
2023-03-30T02:30:47.144Z,16.10
2023-03-30T02:33:31.208Z,16.20
2023-03-30T02:36:24.244Z,16.10
2023-03-30T02:39:02.303Z,16.10
2023-03-30T02:41:50.761Z,16.10
2023-03-30T02:44:46.466Z,16.10
2023-03-30T02:47:23.073Z,16.10
2023-03-30T02:49:55.860Z,16.10
2023-03-30T02:52:55.809Z,16.10
2023-03-30T02:55:48.334Z,16.10
2023-03-30T02:58:54.913Z,16.10
2023-03-30T03:01:58.154Z,16.10
2023-03-30T03:04:28.523Z,16.10
2023-03-30T03:07:16.159Z,16.10
2023-03-30T03:09:43.914Z,16.10
2023-03-30T03:12:12.642Z,16.10
2023-03-30T03:14:41.365Z,16.10
2023-03-30T03:17:08.728Z,16.10
2023-03-30T03:19:43.082Z,16.10
2023-03-30T03:22:10.878Z,16.10
2023-03-30T03:24:39.743Z,16.10
2023-03-30T03:27:25.816Z,16.10
2023-03-30T03:30:11.418Z,16.10
2023-03-30T03:32:45.136Z,16.10
2023-03-30T03:35:12.795Z,16.10
2023-03-30T03:37:40.166Z,16.10
2023-03-30T03:40:08.177Z,16.10
2023-03-30T03:42:36.202Z,16.10
2023-03-30T03:45:10.308Z,16.10
2023-03-30T03:47:51.552Z,16.10
2023-03-30T03:50:24.203Z,16.10
2023-03-30T03:52:52.556Z,16.10
2023-03-30T03:55:19.716Z,16.10
2023-03-30T03:57:47.320Z,16.10
2023-03-30T04:00:17.760Z,16.10
2023-03-30T04:02:50.685Z,16.10
2023-03-30T04:05:18.216Z,16.10
2023-03-30T04:07:48.227Z,16.10
2023-03-30T04:10:15.944Z,16.10
2023-03-30T04:13:01.685Z,16.10
2023-03-30T04:15:47.221Z,16.10
2023-03-30T04:18:15.553Z,16.10
2023-03-30T04:21:07.561Z,16.00
2023-03-30T04:23:51.969Z,16.00
2023-03-30T04:26:19.472Z,16.00
2023-03-30T04:29:08.048Z,16.00
2023-03-30T04:31:38.577Z,16.00
2023-03-30T04:34:16.597Z,16.00
2023-03-30T04:36:56.089Z,16.00
2023-03-30T04:39:32.164Z,16.00
2023-03-30T04:42:20.405Z,16.00
2023-03-30T04:45:08.587Z,16.00
2023-03-30T04:47:56.693Z,16.00
2023-03-30T04:50:24.068Z,16.00
2023-03-30T04:53:10.790Z,16.00
2023-03-30T04:56:11.513Z,16.00
2023-03-30T04:58:57.690Z,16.00
2023-03-30T05:01:45.793Z,16.00
2023-03-30T05:04:28.765Z,16.00
2023-03-30T05:07:11.208Z,16.00
2023-03-30T05:09:56.733Z,16.00
2023-03-30T05:12:41.456Z,16.00
2023-03-30T05:15:16.654Z,16.00
2023-03-30T05:18:02.209Z,16.00
2023-03-30T05:20:50.057Z,16.00
2023-03-30T05:23:34.839Z,16.00
2023-03-30T05:26:24.935Z,16.00
2023-03-30T05:29:12.428Z,15.90
2023-03-30T05:31:57.952Z,16.00
2023-03-30T05:34:40.141Z,16.00
2023-03-30T05:37:30.627Z,15.90
2023-03-30T05:40:20.808Z,16.00
2023-03-30T05:43:06.807Z,15.90
2023-03-30T05:46:07.840Z,15.90
2023-03-30T05:48:47.987Z,15.90
2023-03-30T05:51:41.502Z,15.90
2023-03-30T05:54:17.200Z,15.90
2023-03-30T05:56:44.328Z,15.90
2023-03-30T05:59:38.400Z,15.90
2023-03-30T06:02:14.806Z,15.90
2023-03-30T06:04:42.594Z,15.90
2023-03-30T06:07:10.464Z,15.90
2023-03-30T06:09:38.502Z,15.90
2023-03-30T06:12:14.869Z,15.90
2023-03-30T06:14:42.251Z,15.90
2023-03-30T06:17:32.091Z,15.90
2023-03-30T06:19:59.088Z,15.90
2023-03-30T06:22:28.419Z,15.90
2023-03-30T06:25:04.153Z,16.00
2023-03-30T06:27:34.378Z,16.00
2023-03-30T06:30:01.673Z,16.00
2023-03-30T06:32:28.827Z,16.00
2023-03-30T06:35:16.220Z,16.00
2023-03-30T06:37:44.582Z,16.00
2023-03-30T06:40:14.920Z,16.00
2023-03-30T06:42:45.995Z,16.00
2023-03-30T06:45:38.880Z,16.00
2023-03-30T06:48:07.154Z,16.00
2023-03-30T06:50:38.679Z,16.00
2023-03-30T06:53:28.417Z,16.00
2023-03-30T06:55:57.948Z,16.00
2023-03-30T06:58:27.714Z,16.00
2023-03-30T07:00:56.889Z,16.00
2023-03-30T07:03:56.708Z,16.00
2023-03-30T07:06:44.406Z,16.10
2023-03-30T07:09:13.095Z,16.10
2023-03-30T07:11:40.868Z,16.10
2023-03-30T07:14:10.195Z,16.10
2023-03-30T07:16:38.593Z,16.10
2023-03-30T07:19:06.259Z,16.10
2023-03-30T07:21:34.078Z,16.10
2023-03-30T07:24:01.488Z,16.10
2023-03-30T07:26:37.489Z,16.20
2023-03-30T07:29:08.170Z,16.10
2023-03-30T07:31:38.407Z,16.20
2023-03-30T07:34:09.332Z,16.20
2023-03-30T07:36:41.581Z,16.20
2023-03-30T07:39:11.292Z,16.20
2023-03-30T07:41:40.846Z,16.20
2023-03-30T07:44:08.278Z,16.20
2023-03-30T07:46:38.793Z,16.30
2023-03-30T07:49:07.816Z,16.30
2023-03-30T07:51:35.803Z,16.30
2023-03-30T07:54:10.689Z,16.30
2023-03-30T07:56:58.273Z,16.40
2023-03-30T07:59:26.089Z,16.30
2023-03-30T08:01:57.896Z,16.40
2023-03-30T08:04:46.824Z,16.40
2023-03-30T08:07:17.934Z,16.50
2023-03-30T08:09:48.434Z,16.40
2023-03-30T08:12:15.980Z,16.50
2023-03-30T08:14:42.907Z,16.50
2023-03-30T08:17:10.117Z,16.50
2023-03-30T08:19:37.251Z,16.50
2023-03-30T08:22:04.994Z,16.60
2023-03-30T08:24:32.705Z,16.60
2023-03-30T08:26:59.926Z,16.60
2023-03-30T08:29:27.363Z,16.60
2023-03-30T08:31:54.616Z,16.70
2023-03-30T08:34:21.627Z,16.70
2023-03-30T08:36:48.969Z,16.70
2023-03-30T08:39:16.180Z,16.70
2023-03-30T08:42:06.094Z,16.70
2023-03-30T08:44:42.658Z,16.80
2023-03-30T08:47:22.804Z,16.80
2023-03-30T08:50:19.152Z,16.80
2023-03-30T08:52:47.813Z,16.80
2023-03-30T08:55:32.174Z,16.90
2023-03-30T08:58:20.205Z,16.90
2023-03-30T09:01:07.846Z,16.90
2023-03-30T09:04:34.855Z,16.90
2023-03-30T09:07:12.269Z,17.00
2023-03-30T09:09:46.523Z,17.00
2023-03-30T09:12:46.133Z,17.00
2023-03-30T09:15:31.225Z,17.00
2023-03-30T09:18:14.624Z,17.10
2023-03-30T09:20:45.896Z,17.00
2023-03-30T09:23:17.776Z,17.10
2023-03-30T09:25:54.079Z,17.10
2023-03-30T09:28:39.372Z,17.10
2023-03-30T09:31:19.925Z,17.10
2023-03-30T09:34:09.499Z,17.10
2023-03-30T09:36:51.508Z,17.20
2023-03-30T09:39:32.230Z,17.20
2023-03-30T09:42:38.064Z,17.20
2023-03-30T09:45:15.842Z,17.30
2023-03-30T09:47:44.292Z,17.30
2023-03-30T09:50:34.017Z,17.30
2023-03-30T09:53:10.164Z,17.30
2023-03-30T09:55:38.451Z,17.30
2023-03-30T09:58:21.343Z,17.30
2023-03-30T10:01:07.189Z,17.30
2023-03-30T10:03:38.883Z,17.30
2023-03-30T10:06:17.656Z,17.40
2023-03-30T10:08:52.792Z,17.40
2023-03-30T10:11:43.303Z,17.40
2023-03-30T10:14:31.587Z,17.40
2023-03-30T10:17:00.708Z,17.40
2023-03-30T10:19:29.364Z,17.40
2023-03-30T10:22:05.023Z,17.40
2023-03-30T10:24:33.992Z,17.50
2023-03-30T10:27:13.390Z,17.40
2023-03-30T10:29:48.706Z,17.50
2023-03-30T10:32:30.051Z,17.50
2023-03-30T10:35:02.030Z,17.50
2023-03-30T10:37:38.128Z,17.50
2023-03-30T10:40:39.167Z,17.60
2023-03-30T10:43:15.002Z,17.60
2023-03-30T10:45:48.892Z,17.60
2023-03-30T10:48:37.715Z,17.60
2023-03-30T10:52:02.023Z,17.60
2023-03-30T10:54:35.225Z,17.60
2023-03-30T10:57:22.343Z,17.70
2023-03-30T11:00:22.648Z,17.70
2023-03-30T11:03:16.862Z,17.70
2023-03-30T11:06:01.682Z,17.70
2023-03-30T11:08:59.602Z,17.80
2023-03-30T11:12:01.625Z,17.80
2023-03-30T11:14:46.252Z,17.80
2023-03-30T11:17:26.336Z,17.80
2023-03-30T11:20:00.194Z,17.80
2023-03-30T11:22:49.882Z,17.90
2023-03-30T11:25:31.020Z,17.90
2023-03-30T11:28:28.281Z,17.90
2023-03-30T11:31:10.189Z,17.90
2023-03-30T11:33:52.177Z,17.90
2023-03-30T11:36:55.740Z,17.90
2023-03-30T11:39:32.655Z,17.90
2023-03-30T11:42:32.688Z,17.90
2023-03-30T11:45:51.507Z,17.90
2023-03-30T11:49:02.947Z,17.90
2023-03-30T11:52:08.153Z,17.90
2023-03-30T11:54:56.120Z,17.90
2023-03-30T11:58:04.850Z,17.90
2023-03-30T12:00:50.707Z,17.90
2023-03-30T12:03:45.147Z,17.90
2023-03-30T12:06:33.434Z,17.90
2023-03-30T12:09:19.207Z,17.90
2023-03-30T12:12:32.939Z,17.90
2023-03-30T12:15:26.638Z,17.90
2023-03-30T12:18:13.802Z,17.90
2023-03-30T12:20:54.068Z,17.90
2023-03-30T12:24:17.414Z,17.90
2023-03-30T12:26:51.802Z,17.90
2023-03-30T12:32:29.368Z,17.90
2023-03-30T12:34:58.586Z,18.00
2023-03-30T12:37:37.993Z,18.00
2023-03-30T12:40:22.329Z,17.90
2023-03-30T12:43:10.994Z,18.00
2023-03-30T12:46:02.800Z,18.00
2023-03-30T12:48:43.089Z,18.00
2023-03-30T12:51:40.536Z,18.00
2023-03-30T12:54:33.189Z,18.00
2023-03-30T12:57:17.320Z,18.10
2023-03-30T13:00:19.051Z,18.10
2023-03-30T13:03:49.492Z,18.10
2023-03-30T13:06:30.369Z,18.10
2023-03-30T13:09:15.946Z,18.10
2023-03-30T13:11:50.294Z,18.10
2023-03-30T13:14:38.538Z,18.20
2023-03-30T13:17:16.077Z,18.20
2023-03-30T13:20:28.213Z,18.20
2023-03-30T13:23:12.563Z,18.20
2023-03-30T13:26:33.766Z,18.20
2023-03-30T13:29:15.428Z,18.20
2023-03-30T13:31:48.709Z,18.20
2023-03-30T13:35:05.394Z,18.30
2023-03-30T13:38:17.513Z,18.30
2023-03-30T13:41:16.599Z,18.30
2023-03-30T13:44:24.175Z,18.30
2023-03-30T13:47:04.864Z,18.30
2023-03-30T13:50:07.989Z,18.30
2023-03-30T13:52:39.544Z,18.30
2023-03-30T13:55:31.254Z,18.30
2023-03-30T13:58:11.011Z,18.30
2023-03-30T14:00:52.130Z,18.30
2023-03-30T14:03:30.808Z,18.30
2023-03-30T14:06:22.980Z,18.30
2023-03-30T14:09:20.068Z,18.30
2023-03-30T14:11:59.166Z,18.30
2023-03-30T14:15:52.419Z,18.30
2023-03-30T14:18:25.692Z,18.30
2023-03-30T14:21:10.268Z,18.30
2023-03-30T14:23:50.236Z,18.30
2023-03-30T14:26:24.794Z,18.30
2023-03-30T14:29:02.930Z,18.30
2023-03-30T14:31:41.386Z,18.30
2023-03-30T14:34:33.140Z,18.30
2023-03-30T14:37:08.557Z,18.30
2023-03-30T14:39:51.416Z,18.30
2023-03-30T14:42:22.655Z,18.40
2023-03-30T14:44:53.510Z,18.40
2023-03-30T14:47:24.543Z,18.40
2023-03-30T14:50:03.994Z,18.40
2023-03-30T14:52:45.747Z,18.40
2023-03-30T14:55:20.531Z,18.40
2023-03-30T14:57:52.730Z,18.40
2023-03-30T15:00:26.392Z,18.40
2023-03-30T15:03:05.302Z,18.50
2023-03-30T15:05:43.439Z,18.50
2023-03-30T15:08:42.238Z,18.50
2023-03-30T15:11:22.984Z,18.50
2023-03-30T15:13:59.479Z,18.50
2023-03-30T15:16:30.292Z,18.50
2023-03-30T15:19:21.210Z,18.50
2023-03-30T15:22:05.494Z,18.50
2023-03-30T15:24:51.191Z,18.50
2023-03-30T15:27:18.830Z,18.50
2023-03-30T15:29:51.003Z,18.50
2023-03-30T15:32:36.421Z,18.50
2023-03-30T16:04:31.719Z,18.50
2023-03-30T16:15:27.679Z,18.40
2023-03-30T16:19:10.389Z,18.40
2023-03-30T16:26:45.722Z,18.40
2023-03-30T16:29:48.990Z,18.40
2023-03-30T16:33:07.584Z,18.30
2023-03-30T16:35:55.220Z,18.40
2023-03-30T16:43:00.006Z,18.30
2023-03-30T17:07:11.883Z,18.30
2023-03-30T17:09:39.891Z,18.30
2023-03-30T17:12:06.884Z,18.30
2023-03-30T17:15:38.176Z,18.30
2023-03-30T17:47:12.387Z,18.20
2023-03-30T18:31:56.159Z,18.20
2023-03-30T19:30:14.341Z,18.20
2023-03-30T19:37:52.510Z,18.10
2023-03-30T19:40:21.764Z,18.20
2023-03-30T19:42:50.023Z,18.10
2023-03-30T19:45:21.764Z,18.20
2023-03-30T19:47:50.578Z,18.20
2023-03-30T19:50:23.309Z,18.20
2023-03-30T19:52:51.416Z,18.20
2023-03-30T19:55:20.508Z,18.20
2023-03-30T19:57:58.647Z,18.30
2023-03-30T20:00:28.725Z,18.30
2023-03-30T20:02:57.254Z,18.30
2023-03-30T20:05:29.601Z,18.30
2023-03-30T20:07:58.039Z,18.40
2023-03-30T20:10:27.036Z,18.30
2023-03-30T20:12:54.742Z,18.40
2023-03-30T20:15:25.326Z,18.40
2023-03-30T20:17:56.498Z,18.40
2023-03-30T20:20:27.864Z,18.40
2023-03-30T20:22:56.603Z,18.40
2023-03-30T20:25:24.570Z,18.40
2023-03-30T20:27:53.817Z,18.40
2023-03-30T20:30:21.259Z,18.40
2023-03-30T20:33:03.793Z,18.40
2023-03-30T20:35:36.270Z,18.40
2023-03-30T20:38:05.462Z,18.40
2023-03-30T20:40:33.076Z,18.40
2023-03-30T20:43:03.728Z,18.40
2023-03-30T20:45:32.108Z,18.40
2023-03-30T20:48:06.024Z,18.40
2023-03-30T20:50:47.350Z,18.40
2023-03-30T20:53:17.131Z,18.40
2023-03-30T20:55:44.199Z,18.40
2023-03-30T20:58:11.526Z,18.40
2023-03-30T21:00:38.832Z,18.40
2023-03-30T21:03:06.325Z,18.40
2023-03-30T21:05:33.529Z,18.40
2023-03-30T21:08:01.897Z,18.40
2023-03-30T21:10:29.178Z,18.50
2023-03-30T21:12:56.305Z,18.50
2023-03-30T21:15:23.351Z,18.40
2023-03-30T21:17:50.817Z,18.40
2023-03-30T21:20:17.946Z,18.40
2023-03-30T21:22:44.947Z,18.50
2023-03-30T21:25:12.790Z,18.40
2023-03-30T21:27:40.412Z,18.40
2023-03-30T21:30:12.893Z,18.40
2023-03-30T21:32:40.541Z,18.40
2023-03-30T21:35:08.360Z,18.50
2023-03-30T21:37:36.055Z,18.50
2023-03-30T21:40:04.486Z,18.40
2023-03-30T21:42:35.220Z,18.50
2023-03-30T21:45:02.505Z,18.40
2023-03-30T21:47:29.587Z,18.40
2023-03-30T21:49:56.808Z,18.40
2023-03-30T21:52:24.392Z,18.50
2023-03-30T21:54:51.798Z,18.50
2023-03-30T21:57:19.141Z,18.40
2023-03-30T21:59:46.713Z,18.50
2023-03-30T22:02:14.022Z,18.50
2023-03-30T22:04:44.439Z,18.40
2023-03-30T22:07:11.790Z,18.50
2023-03-30T22:09:39.496Z,18.40
2023-03-30T22:12:23.972Z,18.40
2023-03-30T22:14:55.171Z,18.50
2023-03-30T22:17:42.169Z,18.50
2023-03-30T22:20:13.577Z,18.40
2023-03-30T22:22:41.892Z,18.50
2023-03-30T22:25:11.822Z,18.50
2023-03-30T22:27:39.347Z,18.40
2023-03-30T22:30:18.555Z,18.50
2023-03-30T22:32:46.579Z,18.40
2023-03-30T22:35:14.333Z,18.40
2023-03-30T22:37:42.041Z,18.50
2023-03-30T22:40:09.932Z,18.40
2023-03-30T22:42:37.275Z,18.40
2023-03-30T22:45:05.108Z,18.40
2023-03-30T22:47:32.607Z,18.40
2023-03-30T22:50:00.410Z,18.40
2023-03-30T22:52:27.500Z,18.40
2023-03-30T22:54:54.515Z,18.40
2023-03-30T22:57:21.748Z,18.40
2023-03-30T22:59:48.872Z,18.40
2023-03-30T23:02:16.023Z,18.40
2023-03-30T23:04:43.997Z,18.40
2023-03-30T23:07:16.057Z,18.40
2023-03-30T23:09:47.510Z,18.40
2023-03-30T23:12:14.850Z,18.40
2023-03-30T23:14:43.072Z,18.40
2023-03-30T23:17:10.546Z,18.40
2023-03-30T23:19:37.898Z,18.40
2023-03-30T23:22:05.310Z,18.30
2023-03-30T23:24:33.197Z,18.30
2023-03-30T23:27:07.701Z,18.40
2023-03-30T23:29:43.598Z,18.30
2023-03-30T23:32:13.534Z,18.40
2023-03-30T23:34:42.437Z,18.30
2023-03-30T23:37:12.209Z,18.30
2023-03-30T23:39:39.843Z,18.30
2023-03-30T23:42:10.273Z,18.30
2023-03-30T23:44:37.616Z,18.30
2023-03-30T23:47:05.425Z,18.30
2023-03-30T23:49:32.816Z,18.30
2023-03-30T23:51:59.960Z,18.30
2023-03-30T23:54:31.522Z,18.30
2023-03-30T23:57:00.931Z,18.30
2023-03-30T23:59:28.185Z,18.30
